TAF and METAR

Could not understand the following METAR

YCIN 210630Z AUTO 35007KT 330V030 9999 // NCD 33/01 Q1012 RF00.0/000.0

TAF for RAAF Base Curtin Airport

TAF YCIN 210013Z 2102/2114 05005KT CAVOK FM210800 28007KT CAVOK
Report created 21. jul 02:13

between 21. jul 04:00 - 21. jul 16:00

wind 5 knots from NE (050°) Clear sky

From 21. jul 10:00

wind 7 knots from W (280°) Clear sky